Fair Grove, MO (65648)

5:33 PM CDT on September 03, 2015 (GMT -0500)
Fair Grove | | Change Station
CLOSE
Current Station
Personal Weather Station
Location: Fair Grove, MO
Elevation: 1276 ft
Nearby Weather Stations

Elev 1276 ft 37.39 °N, 93.15 °W | Updated 7 minutes ago

Clear
Clear
87.6 °F
Feels Like 92 °F
N
4.0
Wind Variable Wind from SE
Gusts 11.0 mph

Today
High -- | Low -- °F
--% Chance of Precip.
Yesterday
High -- | Low -- °F
Precip. -- in
6:44 AM 7:38 PM
Waning Gibbous, 66% visible
Pressure 29.91 in
Visibility 10.0 miles
Clouds Few 4900 ft
Heat Index 92 °F
Dew Point 69 °F
Humidity 54%
Rainfall 0.00 in
Snow Depth Not available.
UV 1.3 out of 12
Pollen 10.80 out of 12
Air Quality Not available.
Flu Activity Not available.
METAR KSGF 032152Z 18009KT 10SM FEW049 31/19 A2995 RMK AO2 SLP128 T03110189
Pressure 29.91 in
Visibility 10.0 miles
Clouds Few 4900 ft
Heat Index 92 °F
Dew Point 69 °F
Humidity 54%
Rainfall 0.00 in
Snow Depth Not available.
UV 1.3 out of 12
Pollen 10.80 out of 12
Air Quality Not available.
Flu Activity Not available.
METAR KSGF 032152Z 18009KT 10SM FEW049 31/19 A2995 RMK AO2 SLP128 T03110189

10-Day Weather Forecast

×

Almanac

Astronomy

Sep. 03, 2015 Rise Set
Actual Time
Civil Twilight
Nautical Twilight
Astronomical Twilight
Moon
Length of Visible Light
Length of Day
Tomorrow will be .
, % of the Moon is Illuminated

Today's Extremes

State Highs State Lows

Community

WunderPhotos

Upload Photos

1,852,049 photos uploaded!

WunderBlogs® & News

Nearby

Air Quality

  Air Quality AQ Index Pollutant
Not available.

Snow Depth

Station Depth Elevation

Earthquake Activity

City Distance Mag. Time & Date
Minimum magnitude displayed is 2.5.

Coastal Water Temperatures

Place Temperature

Stations

Nearby Weather Stations

Station Location Temp. Windchill Dew Point Humidity Wind Precip. Elev Updated Type